Wetterdaten: Woche 04.04.16 - 10.04.16 (KW14)
Datum Zeit Temp. I. Temp. A. Feuchte I. Feuchte A. Luftdruck Regen Wind Richtung Sonnenschein UV Solar Taupunkt Windchill Windben
04.04.2016 00:00 23,3 C 9,8 C 46 % 78 % 1009,6 hPa 0,0 l/m 0,0 km/h (0 Bft) N 0,00 h 0,0 UV-I 0 W/m 6,1 C 9,8 C 0,0 km/h (0 Bft)
04.04.2016 01:00 23,1 C 8,4 C 46 % 84 % 1009,3 hPa 0,0 l/m 0,0 km/h (0 Bft) N 0,00 h 0,0 UV-I 0 W/m 5,8 C 8,4 C 0,0 km/h (0 Bft)
04.04.2016 02:00 23,1 C 7,5 C 46 % 86 % 1008,7 hPa 0,0 l/m 0,0 km/h (0 Bft) N 0,00 h 0,0 UV-I 0 W/m 5,3 C 7,5 C 0,0 km/h (0 Bft)
04.04.2016 03:00 23,0 C 6,8 C 46 % 89 % 1008,3 hPa 0,0 l/m 0,0 km/h (0 Bft) N 0,00 h 0,0 UV-I 0 W/m 5,0 C 6,8 C 0,0 km/h (0 Bft)
04.04.2016 04:00 23,0 C 6,9 C 47 % 91 % 1008,1 hPa 0,0 l/m 0,0 km/h (0 Bft) N 0,00 h 0,0 UV-I 0 W/m 5,5 C 6,9 C 0,0 km/h (0 Bft)
04.04.2016 05:00 22,8 C 7,0 C 46 % 91 % 1007,6 hPa 0,0 l/m 0,0 km/h (0 Bft) N 0,00 h 0,0 UV-I 0 W/m 5,6 C 7,0 C 0,0 km/h (0 Bft)
04.04.2016 06:00 22,8 C 6,9 C 46 % 91 % 1007,4 hPa 0,0 l/m 0,0 km/h (0 Bft) N 0,00 h 0,0 UV-I 8 W/m 5,5 C 6,9 C 0,0 km/h (0 Bft)
04.04.2016 07:00 22,8 C 6,8 C 46 % 92 % 1007,5 hPa 0,0 l/m 0,0 km/h (0 Bft) N 0,00 h 0,0 UV-I 34 W/m 5,5 C 6,8 C 0,0 km/h (0 Bft)
04.04.2016 08:00 22,9 C 7,6 C 46 % 92 % 1007,7 hPa 0,0 l/m 0,0 km/h (0 Bft) N 0,10 h 0,6 UV-I 78 W/m 6,4 C 7,6 C 0,1 km/h (0 Bft)
04.04.2016 09:00 23,2 C 10,2 C 47 % 86 % 1007,8 hPa 0,0 l/m 0,0 km/h (0 Bft) N 1,00 h 0,9 UV-I 218 W/m 7,9 C 10,2 C 0,0 km/h (0 Bft)
04.04.2016 10:00 23,0 C 12,5 C 46 % 77 % 1008,1 hPa 0,0 l/m 0,0 km/h (0 Bft) N 1,00 h 1,1 UV-I 216 W/m 8,5 C 12,5 C 0,0 km/h (0 Bft)
04.04.2016 11:00 23,1 C 14,5 C 46 % 68 % 1008,1 hPa 0,0 l/m 1,0 km/h (0 Bft) W-SW 1,00 h 2,4 UV-I 473 W/m 8,6 C 14,5 C 2,7 km/h (1 Bft)
04.04.2016 12:00 23,3 C 17,0 C 46 % 61 % 1007,7 hPa 0,0 l/m 1,6 km/h (1 Bft) W-NW 1,00 h 3,3 UV-I 630 W/m 9,4 C 17,0 C 3,3 km/h (1 Bft)
04.04.2016 13:00 23,3 C 19,1 C 45 % 56 % 1007,5 hPa 0,0 l/m 1,5 km/h (1 Bft) S-SO 1,00 h 3,7 UV-I 737 W/m 10,3 C 19,1 C 4,2 km/h (1 Bft)
04.04.2016 14:00 23,4 C 20,3 C 45 % 51 % 1007,1 hPa 0,0 l/m 1,5 km/h (1 Bft) W-SW 1,00 h 3,3 UV-I 671 W/m 9,9 C 20,3 C 3,1 km/h (1 Bft)
04.04.2016 15:00 23,5 C 20,3 C 44 % 52 % 1006,5 hPa 0,0 l/m 1,6 km/h (1 Bft) SO 1,00 h 2,5 UV-I 560 W/m 10,2 C 20,3 C 4,0 km/h (1 Bft)
04.04.2016 16:00 23,6 C 20,7 C 45 % 51 % 1006,1 hPa 0,0 l/m 2,1 km/h (1 Bft) S 1,00 h 1,6 UV-I 419 W/m 10,2 C 20,7 C 5,1 km/h (1 Bft)
04.04.2016 17:00 23,5 C 20,4 C 45 % 53 % 1006,2 hPa 0,0 l/m 2,4 km/h (1 Bft) W-SW 0,82 h 0,7 UV-I 229 W/m 10,4 C 20,4 C 6,2 km/h (2 Bft)
04.04.2016 18:00 23,4 C 18,6 C 45 % 57 % 1006,4 hPa 0,0 l/m 1,3 km/h (1 Bft) W-SW 0,00 h 0,5 UV-I 76 W/m 10,0 C 18,6 C 4,3 km/h (1 Bft)
04.04.2016 19:00 23,6 C 17,5 C 45 % 61 % 1006,6 hPa 0,0 l/m 0,0 km/h (0 Bft) N 0,00 h 0,0 UV-I 21 W/m 9,9 C 17,5 C 0,0 km/h (0 Bft)
04.04.2016 20:00 23,7 C 15,9 C 46 % 69 % 1006,9 hPa 0,0 l/m 0,0 km/h (0 Bft) N 0,00 h 0,0 UV-I 0 W/m 10,2 C 15,9 C 0,0 km/h (0 Bft)
04.04.2016 21:00 23,9 C 13,9 C 46 % 76 % 1007,0 hPa 0,0 l/m 0,0 km/h (0 Bft) N 0,00 h 0,0 UV-I 0 W/m 9,8 C 13,9 C 0,0 km/h (0 Bft)
04.04.2016 22:00 23,8 C 12,0 C 47 % 82 % 1006,9 hPa 0,0 l/m 0,0 km/h (0 Bft) N 0,00 h 0,0 UV-I 0 W/m 9,0 C 12,0 C 0,0 km/h (0 Bft)
04.04.2016 23:00 23,5 C 10,6 C 47 % 85 % 1006,8 hPa 0,0 l/m 0,0 km/h (0 Bft) N 0,00 h 0,0 UV-I 0 W/m 8,2 C 10,6 C 0,0 km/h (0 Bft)
05.04.2016 00:00 23,3 C 9,7 C 47 % 88 % 1006,5 hPa 0,0 l/m 0,0 km/h (0 Bft) N 0,00 h 0,0 UV-I 0 W/m 7,9 C 9,7 C 0,0 km/h (0 Bft)
05.04.2016 01:00 23,2 C 9,9 C 48 % 91 % 1006,7 hPa 0,0 l/m 0,9 km/h (0 Bft) NW 0,00 h 0,0 UV-I 0 W/m 8,5 C 9,9 C 2,5 km/h (1 Bft)
05.04.2016 02:00 23,2 C 10,5 C 48 % 90 % 1006,7 hPa 0,0 l/m 0,9 km/h (0 Bft) N 0,00 h 0,0 UV-I 0 W/m 9,0 C 10,5 C 1,8 km/h (1 Bft)
05.04.2016 03:00 23,1 C 10,5 C 48 % 90 % 1006,0 hPa 0,0 l/m 0,1 km/h (0 Bft) NW 0,00 h 0,0 UV-I 0 W/m 8,9 C 10,5 C 0,4 km/h (0 Bft)
05.04.2016 04:00 23,2 C 10,0 C 48 % 90 % 1005,6 hPa 0,0 l/m 0,1 km/h (0 Bft) N 0,00 h 0,0 UV-I 0 W/m 8,5 C 10,0 C 0,3 km/h (0 Bft)
05.04.2016 05:00 23,0 C 9,3 C 48 % 90 % 1005,1 hPa 0,0 l/m 0,0 km/h (0 Bft) N 0,00 h 0,0 UV-I 0 W/m 7,8 C 9,3 C 0,0 km/h (0 Bft)
05.04.2016 06:00 23,0 C 8,4 C 49 % 91 % 1004,8 hPa 0,0 l/m 0,5 km/h (0 Bft) N-NO 0,00 h 0,0 UV-I 9 W/m 7,0 C 8,4 C 0,7 km/h (0 Bft)
05.04.2016 07:00 23,1 C 7,8 C 48 % 92 % 1004,9 hPa 0,0 l/m 0,0 km/h (0 Bft) N 0,00 h 0,0 UV-I 42 W/m 6,6 C 7,8 C 0,1 km/h (0 Bft)
05.04.2016 08:00 23,4 C 10,4 C 49 % 91 % 1004,9 hPa 0,0 l/m 0,1 km/h (0 Bft) N-NW 0,87 h 0,7 UV-I 220 W/m 8,9 C 10,4 C 0,3 km/h (0 Bft)
05.04.2016 09:00 23,6 C 15,0 C 49 % 74 % 1005,0 hPa 0,0 l/m 0,0 km/h (0 Bft) O-SO 1,00 h 1,3 UV-I 363 W/m 10,4 C 15,0 C 0,2 km/h (0 Bft)
05.04.2016 10:00 23,6 C 17,5 C 47 % 64 % 1004,9 hPa 0,0 l/m 0,7 km/h (0 Bft) O 1,00 h 2,1 UV-I 532 W/m 10,5 C 17,5 C 3,2 km/h (1 Bft)
05.04.2016 11:00 23,6 C 19,5 C 48 % 57 % 1005,0 hPa 0,0 l/m 1,8 km/h (1 Bft) S 1,00 h 2,9 UV-I 633 W/m 10,8 C 19,5 C 4,4 km/h (1 Bft)
05.04.2016 12:00 23,6 C 20,6 C 48 % 51 % 1004,9 hPa 0,0 l/m 3,3 km/h (1 Bft) W-SW 1,00 h 3,5 UV-I 656 W/m 10,1 C 20,5 C 7,3 km/h (2 Bft)
05.04.2016 13:00 23,5 C 21,3 C 48 % 47 % 1004,9 hPa 0,0 l/m 4,4 km/h (1 Bft) W-SW 1,00 h 3,6 UV-I 670 W/m 9,6 C 21,1 C 9,0 km/h (2 Bft)
05.04.2016 14:00 23,7 C 21,6 C 46 % 47 % 1004,8 hPa 0,0 l/m 5,2 km/h (1 Bft) W-SW 1,00 h 3,3 UV-I 639 W/m 9,8 C 21,3 C 11,4 km/h (2 Bft)
05.04.2016 15:00 23,8 C 21,7 C 46 % 48 % 1004,6 hPa 0,0 l/m 5,2 km/h (1 Bft) W-SW 1,00 h 2,4 UV-I 500 W/m 10,0 C 21,5 C 11,5 km/h (2 Bft)
05.04.2016 16:00 23,8 C 21,1 C 45 % 48 % 1004,6 hPa 0,0 l/m 5,3 km/h (1 Bft) W-SW 1,00 h 1,7 UV-I 442 W/m 9,8 C 20,9 C 10,9 km/h (2 Bft)
05.04.2016 17:00 23,6 C 20,1 C 44 % 53 % 1004,8 hPa 0,0 l/m 3,6 km/h (1 Bft) W-SW 0,67 h 0,8 UV-I 175 W/m 10,3 C 20,0 C 8,6 km/h (2 Bft)
05.04.2016 18:00 23,6 C 18,8 C 45 % 61 % 1005,1 hPa 0,0 l/m 4,6 km/h (1 Bft) W 0,18 h 0,5 UV-I 104 W/m 11,0 C 18,5 C 9,6 km/h (2 Bft)
05.04.2016 19:00 23,6 C 17,1 C 46 % 65 % 1005,7 hPa 0,0 l/m 7,5 km/h (2 Bft) W-NW 0,00 h 0,0 UV-I 28 W/m 10,6 C 16,2 C 12,7 km/h (3 Bft)
05.04.2016 20:00 23,8 C 15,7 C 47 % 68 % 1006,7 hPa 0,0 l/m 5,6 km/h (1 Bft) W-NW 0,00 h 0,0 UV-I 0 W/m 9,8 C 15,0 C 9,7 km/h (2 Bft)
05.04.2016 21:00 24,0 C 14,5 C 47 % 69 % 1007,6 hPa 0,0 l/m 6,8 km/h (2 Bft) W-NW 0,00 h 0,0 UV-I 0 W/m 8,9 C 13,7 C 11,8 km/h (2 Bft)
05.04.2016 22:00 23,8 C 13,6 C 47 % 69 % 1008,3 hPa 0,0 l/m 8,5 km/h (2 Bft) W 0,00 h 0,0 UV-I 0 W/m 8,1 C 12,1 C 14,0 km/h (3 Bft)
05.04.2016 23:00 23,6 C 12,1 C 48 % 79 % 1008,8 hPa 0,2 l/m 4,2 km/h (1 Bft) W-SW 0,00 h 0,0 UV-I 0 W/m 8,6 C 11,8 C 7,7 km/h (2 Bft)
06.04.2016 00:00 23,5 C 11,6 C 48 % 81 % 1009,3 hPa 0,0 l/m 5,5 km/h (1 Bft) W 0,00 h 0,0 UV-I 0 W/m 8,5 C 10,9 C 9,4 km/h (2 Bft)
06.04.2016 01:00 23,4 C 11,2 C 48 % 82 % 1009,4 hPa 0,0 l/m 6,2 km/h (2 Bft) W 0,00 h 0,0 UV-I 0 W/m 8,3 C 10,1 C 10,7 km/h (2 Bft)
06.04.2016 02:00 23,4 C 10,5 C 48 % 81 % 1009,6 hPa 0,0 l/m 2,0 km/h (1 Bft) W 0,00 h 0,0 UV-I 0 W/m 7,4 C 10,4 C 4,2 km/h (1 Bft)
06.04.2016 03:00 23,3 C 9,7 C 49 % 87 % 1009,9 hPa 0,6 l/m 0,0 km/h (0 Bft) N 0,00 h 0,0 UV-I 0 W/m 7,6 C 9,7 C 0,0 km/h (0 Bft)
06.04.2016 04:00 23,3 C 9,2 C 49 % 91 % 1010,0 hPa 0,0 l/m 0,0 km/h (0 Bft) N 0,00 h 0,0 UV-I 0 W/m 7,9 C 9,2 C 0,0 km/h (0 Bft)
06.04.2016 05:00 23,3 C 9,1 C 49 % 92 % 1010,4 hPa 0,0 l/m 0,3 km/h (0 Bft) W 0,00 h 0,0 UV-I 0 W/m 7,8 C 9,1 C 1,7 km/h (1 Bft)
06.04.2016 06:00 23,2 C 8,9 C 49 % 91 % 1010,9 hPa 0,0 l/m 0,9 km/h (0 Bft) SW 0,00 h 0,0 UV-I 6 W/m 7,5 C 8,9 C 3,2 km/h (1 Bft)
06.04.2016 07:00 23,2 C 8,6 C 49 % 91 % 1011,4 hPa 0,0 l/m 1,3 km/h (1 Bft) W-SW 0,00 h 0,0 UV-I 33 W/m 7,2 C 8,6 C 3,2 km/h (1 Bft)
06.04.2016 08:00 23,2 C 8,7 C 49 % 90 % 1011,8 hPa 0,0 l/m 0,8 km/h (0 Bft) S 0,03 h 0,5 UV-I 73 W/m 7,2 C 8,7 C 2,2 km/h (1 Bft)
06.04.2016 09:00 23,6 C 9,8 C 50 % 87 % 1012,0 hPa 0,0 l/m 2,7 km/h (1 Bft) SW 0,25 h 0,7 UV-I 142 W/m 7,7 C 9,7 C 7,1 km/h (2 Bft)
06.04.2016 10:00 23,6 C 10,9 C 49 % 81 % 1012,2 hPa 0,0 l/m 6,6 km/h (2 Bft) W-SW 0,97 h 1,7 UV-I 341 W/m 7,8 C 9,8 C 13,1 km/h (3 Bft)
06.04.2016 11:00 23,4 C 12,0 C 48 % 71 % 1012,3 hPa 0,0 l/m 12,0 km/h (2 Bft) W-SW 0,92 h 2,4 UV-I 465 W/m 6,8 C 9,0 C 20,2 km/h (4 Bft)
06.04.2016 12:00 23,4 C 12,7 C 47 % 60 % 1012,2 hPa 0,0 l/m 13,0 km/h (3 Bft) W-SW 0,90 h 3,0 UV-I 559 W/m 5,1 C 9,4 C 21,6 km/h (4 Bft)
06.04.2016 13:00 23,4 C 14,0 C 44 % 51 % 1011,9 hPa 0,0 l/m 12,9 km/h (3 Bft) W-SW 1,00 h 3,9 UV-I 766 W/m 3,9 C 10,8 C 19,9 km/h (4 Bft)
06.04.2016 14:00 23,4 C 13,7 C 42 % 49 % 1011,6 hPa 0,0 l/m 13,9 km/h (3 Bft) W-SW 0,88 h 2,2 UV-I 355 W/m 3,0 C 10,2 C 22,7 km/h (4 Bft)
06.04.2016 15:00 23,8 C 13,9 C 41 % 47 % 1011,2 hPa 0,0 l/m 11,3 km/h (2 Bft) W 0,73 h 1,9 UV-I 329 W/m 2,7 C 11,2 C 19,4 km/h (3 Bft)
06.04.2016 16:00 24,0 C 13,5 C 42 % 47 % 1010,8 hPa 0,0 l/m 9,6 km/h (2 Bft) W-SW 0,95 h 1,4 UV-I 301 W/m 2,5 C 11,4 C 17,9 km/h (3 Bft)
06.04.2016 17:00 23,8 C 13,8 C 39 % 48 % 1010,4 hPa 0,0 l/m 6,6 km/h (2 Bft) W-SW 0,82 h 0,9 UV-I 262 W/m 3,0 C 12,8 C 14,0 km/h (3 Bft)
06.04.2016 18:00 23,7 C 13,4 C 40 % 50 % 1010,0 hPa 0,0 l/m 5,1 km/h (1 Bft) W-SW 0,25 h 0,5 UV-I 93 W/m 3,2 C 12,9 C 10,8 km/h (2 Bft)
06.04.2016 19:00 23,7 C 12,2 C 40 % 56 % 1009,8 hPa 0,0 l/m 0,2 km/h (0 Bft) W-SW 0,00 h 0,0 UV-I 15 W/m 3,7 C 12,2 C 1,1 km/h (1 Bft)
06.04.2016 20:00 23,8 C 11,1 C 41 % 62 % 1009,9 hPa 0,0 l/m 0,0 km/h (0 Bft) SW 0,00 h 0,0 UV-I 0 W/m 4,1 C 11,1 C 0,1 km/h (0 Bft)
06.04.2016 21:00 23,8 C 10,4 C 41 % 67 % 1009,9 hPa 0,0 l/m 0,1 km/h (0 Bft) S 0,00 h 0,0 UV-I 0 W/m 4,6 C 10,4 C 0,3 km/h (0 Bft)
06.04.2016 22:00 23,6 C 10,3 C 42 % 70 % 1009,8 hPa 0,0 l/m 0,0 km/h (0 Bft) N 0,00 h 0,0 UV-I 0 W/m 5,0 C 10,3 C 0,0 km/h (0 Bft)
06.04.2016 23:00 23,4 C 10,2 C 43 % 73 % 1009,8 hPa 0,0 l/m 0,0 km/h (0 Bft) N 0,00 h 0,0 UV-I 0 W/m 5,5 C 10,2 C 0,1 km/h (0 Bft)
07.04.2016 00:00 23,3 C 10,1 C 44 % 75 % 1009,8 hPa 0,0 l/m 0,3 km/h (0 Bft) S 0,00 h 0,0 UV-I 0 W/m 5,9 C 10,1 C 1,8 km/h (1 Bft)
07.04.2016 01:00 23,2 C 9,6 C 44 % 79 % 1009,7 hPa 0,0 l/m 2,5 km/h (1 Bft) S 0,00 h 0,0 UV-I 0 W/m 6,1 C 9,6 C 6,1 km/h (2 Bft)
07.04.2016 02:00 23,2 C 9,6 C 45 % 79 % 1009,5 hPa 0,0 l/m 2,9 km/h (1 Bft) S 0,00 h 0,0 UV-I 0 W/m 6,2 C 9,5 C 6,3 km/h (2 Bft)
07.04.2016 03:00 23,1 C 9,3 C 45 % 79 % 1009,2 hPa 0,0 l/m 2,7 km/h (1 Bft) S 0,00 h 0,0 UV-I 0 W/m 6,0 C 9,3 C 5,9 km/h (2 Bft)
07.04.2016 04:00 23,1 C 9,1 C 45 % 79 % 1009,0 hPa 0,0 l/m 3,3 km/h (1 Bft) S 0,00 h 0,0 UV-I 0 W/m 5,7 C 9,1 C 6,1 km/h (2 Bft)
07.04.2016 05:00 23,0 C 9,0 C 46 % 78 % 1009,0 hPa 0,0 l/m 4,2 km/h (1 Bft) S 0,00 h 0,0 UV-I 0 W/m 5,4 C 8,9 C 8,9 km/h (2 Bft)
07.04.2016 06:00 22,9 C 8,7 C 46 % 78 % 1009,1 hPa 0,0 l/m 0,8 km/h (0 Bft) S-SW 0,00 h 0,0 UV-I 9 W/m 5,2 C 8,7 C 2,5 km/h (1 Bft)
07.04.2016 07:00 22,9 C 8,7 C 47 % 79 % 1009,4 hPa 0,0 l/m 0,9 km/h (0 Bft) S-SW 0,00 h 0,0 UV-I 32 W/m 5,2 C 8,7 C 2,2 km/h (1 Bft)
07.04.2016 08:00 23,1 C 9,1 C 47 % 77 % 1009,7 hPa 0,0 l/m 1,2 km/h (1 Bft) S 0,05 h 0,7 UV-I 73 W/m 5,3 C 9,1 C 3,0 km/h (1 Bft)
07.04.2016 09:00 23,3 C 9,8 C 47 % 75 % 1009,8 hPa 0,0 l/m 3,7 km/h (1 Bft) S 0,53 h 0,9 UV-I 152 W/m 5,5 C 9,7 C 8,1 km/h (2 Bft)
07.04.2016 10:00 23,3 C 10,6 C 46 % 72 % 1009,9 hPa 0,0 l/m 4,8 km/h (1 Bft) S 1,00 h 1,4 UV-I 221 W/m 5,8 C 10,3 C 10,1 km/h (2 Bft)
07.04.2016 11:00 23,3 C 11,4 C 46 % 69 % 1009,9 hPa 0,0 l/m 6,0 km/h (2 Bft) S 0,77 h 1,7 UV-I 232 W/m 5,8 C 10,7 C 12,2 km/h (3 Bft)
07.04.2016 12:00 23,4 C 10,2 C 46 % 75 % 1010,3 hPa 0,0 l/m 12,6 km/h (3 Bft) W 0,85 h 2,0 UV-I 260 W/m 6,0 C 6,6 C 20,3 km/h (4 Bft)
07.04.2016 13:00 23,3 C 9,8 C 46 % 69 % 1010,8 hPa 0,0 l/m 11,2 km/h (2 Bft) W 1,00 h 3,4 UV-I 532 W/m 4,4 C 6,6 C 18,4 km/h (3 Bft)
07.04.2016 14:00 23,5 C 11,1 C 44 % 54 % 1010,4 hPa 0,0 l/m 11,4 km/h (2 Bft) W-SW 1,00 h 3,2 UV-I 583 W/m 2,1 C 8,2 C 18,2 km/h (3 Bft)
07.04.2016 15:00 23,7 C 10,9 C 42 % 56 % 1010,5 hPa 0,0 l/m 9,4 km/h (2 Bft) W-SW 0,92 h 1,4 UV-I 205 W/m 2,5 C 8,8 C 15,4 km/h (3 Bft)
07.04.2016 16:00 23,9 C 10,7 C 42 % 58 % 1010,5 hPa 0,0 l/m 7,4 km/h (2 Bft) W 0,62 h 1,1 UV-I 214 W/m 2,9 C 9,4 C 13,2 km/h (3 Bft)
07.04.2016 17:00 24,1 C 10,3 C 42 % 61 % 1010,6 hPa 0,0 l/m 7,2 km/h (2 Bft) W-SW 0,57 h 0,7 UV-I 171 W/m 3,1 C 9,0 C 12,6 km/h (3 Bft)
07.04.2016 18:00 23,8 C 9,7 C 41 % 62 % 1010,7 hPa 0,0 l/m 2,6 km/h (1 Bft) W 0,22 h 0,6 UV-I 96 W/m 2,8 C 9,4 C 5,2 km/h (1 Bft)
07.04.2016 19:00 24,0 C 9,0 C 42 % 64 % 1010,8 hPa 0,0 l/m 0,6 km/h (0 Bft) W-SW 0,00 h 0,0 UV-I 14 W/m 2,6 C 9,0 C 1,8 km/h (1 Bft)
07.04.2016 20:00 24,0 C 8,4 C 42 % 67 % 1011,2 hPa 0,0 l/m 0,0 km/h (0 Bft) N 0,00 h 0,0 UV-I 0 W/m 2,7 C 8,4 C 0,0 km/h (0 Bft)
07.04.2016 21:00 24,0 C 7,9 C 42 % 71 % 1011,8 hPa 0,0 l/m 0,0 km/h (0 Bft) N 0,00 h 0,0 UV-I 0 W/m 3,0 C 7,9 C 0,0 km/h (0 Bft)
07.04.2016 22:00 23,6 C 7,6 C 43 % 72 % 1012,2 hPa 0,0 l/m 0,1 km/h (0 Bft) W-SW 0,00 h 0,0 UV-I 0 W/m 2,9 C 7,6 C 0,5 km/h (0 Bft)
07.04.2016 23:00 23,4 C 7,3 C 44 % 72 % 1012,5 hPa 0,0 l/m 0,3 km/h (0 Bft) W-SW 0,00 h 0,0 UV-I 0 W/m 2,6 C 7,3 C 1,4 km/h (1 Bft)
08.04.2016 00:00 23,3 C 7,1 C 45 % 72 % 1012,5 hPa 0,0 l/m 0,0 km/h (0 Bft) N 0,00 h 0,0 UV-I 0 W/m 2,4 C 7,1 C 0,2 km/h (0 Bft)
08.04.2016 01:00 23,2 C 6,7 C 45 % 74 % 1012,3 hPa 0,0 l/m 0,0 km/h (0 Bft) W 0,00 h 0,0 UV-I 0 W/m 2,5 C 6,7 C 0,2 km/h (0 Bft)
08.04.2016 02:00 23,1 C 6,4 C 46 % 77 % 1012,2 hPa 0,0 l/m 0,0 km/h (0 Bft) N 0,00 h 0,0 UV-I 0 W/m 2,6 C 6,4 C 0,0 km/h (0 Bft)
08.04.2016 03:00 23,0 C 6,1 C 46 % 81 % 1012,0 hPa 0,0 l/m 0,0 km/h (0 Bft) N 0,00 h 0,0 UV-I 0 W/m 3,0 C 6,1 C 0,0 km/h (0 Bft)
08.04.2016 04:00 23,0 C 5,8 C 46 % 82 % 1011,8 hPa 0,0 l/m 0,0 km/h (0 Bft) N 0,00 h 0,0 UV-I 0 W/m 3,0 C 5,8 C 0,0 km/h (0 Bft)
08.04.2016 05:00 23,0 C 5,7 C 46 % 81 % 1011,8 hPa 0,0 l/m 0,0 km/h (0 Bft) N 0,00 h 0,0 UV-I 0 W/m 2,8 C 5,7 C 0,0 km/h (0 Bft)
08.04.2016 06:00 23,2 C 5,6 C 46 % 83 % 1012,0 hPa 0,0 l/m 0,0 km/h (0 Bft) N 0,00 h 0,0 UV-I 5 W/m 3,0 C 5,6 C 0,0 km/h (0 Bft)
08.04.2016 07:00 23,2 C 5,4 C 46 % 85 % 1012,2 hPa 0,0 l/m 0,0 km/h (0 Bft) N 0,00 h 0,0 UV-I 28 W/m 3,1 C 5,4 C 0,0 km/h (0 Bft)
08.04.2016 08:00 23,2 C 5,9 C 46 % 83 % 1012,2 hPa 0,0 l/m 0,0 km/h (0 Bft) N 0,00 h 0,5 UV-I 74 W/m 3,3 C 5,9 C 0,0 km/h (0 Bft)
08.04.2016 09:00 23,3 C 6,7 C 47 % 79 % 1012,1 hPa 0,0 l/m 0,1 km/h (0 Bft) W-NW 0,32 h 0,7 UV-I 123 W/m 3,3 C 6,7 C 0,2 km/h (0 Bft)
08.04.2016 10:00 23,5 C 8,2 C 46 % 73 % 1011,9 hPa 0,0 l/m 0,2 km/h (0 Bft) W-NW 1,00 h 1,7 UV-I 265 W/m 3,6 C 8,2 C 0,6 km/h (0 Bft)
08.04.2016 11:00 23,6 C 9,5 C 45 % 61 % 1011,6 hPa 0,0 l/m 0,2 km/h (0 Bft) N 1,00 h 1,9 UV-I 292 W/m 2,4 C 9,5 C 0,6 km/h (0 Bft)
08.04.2016 12:00 23,9 C 10,2 C 43 % 55 % 1011,2 hPa 0,0 l/m 0,6 km/h (0 Bft) SO 1,00 h 2,7 UV-I 403 W/m 1,6 C 10,2 C 2,1 km/h (1 Bft)
08.04.2016 13:00 23,8 C 11,1 C 40 % 52 % 1010,7 hPa 0,0 l/m 1,0 km/h (0 Bft) N 1,00 h 2,7 UV-I 407 W/m 1,6 C 11,1 C 2,6 km/h (1 Bft)
08.04.2016 14:00 23,9 C 11,5 C 41 % 49 % 1010,3 hPa 0,0 l/m 0,8 km/h (0 Bft) N-NO 1,00 h 2,2 UV-I 330 W/m 1,1 C 11,5 C 2,6 km/h (1 Bft)
08.04.2016 15:00 23,7 C 11,4 C 43 % 49 % 1009,9 hPa 0,0 l/m 1,6 km/h (1 Bft) N 1,00 h 1,4 UV-I 231 W/m 1,1 C 11,3 C 3,6 km/h (1 Bft)
08.04.2016 16:00 23,6 C 11,2 C 41 % 50 % 1009,4 hPa 0,0 l/m 1,7 km/h (1 Bft) N-NO 1,00 h 1,0 UV-I 192 W/m 1,2 C 11,2 C 3,8 km/h (1 Bft)
08.04.2016 17:00 23,8 C 11,3 C 40 % 49 % 1009,1 hPa 0,0 l/m 1,6 km/h (1 Bft) N-NO 0,33 h 0,7 UV-I 134 W/m 1,0 C 11,3 C 3,7 km/h (1 Bft)
08.04.2016 18:00 24,0 C 10,8 C 40 % 50 % 1009,0 hPa 0,0 l/m 0,5 km/h (0 Bft) N-NO 0,00 h 0,0 UV-I 51 W/m 0,8 C 10,8 C 1,4 km/h (1 Bft)
08.04.2016 19:00 24,1 C 10,3 C 40 % 53 % 1009,2 hPa 0,0 l/m 0,0 km/h (0 Bft) N 0,00 h 0,0 UV-I 12 W/m 1,2 C 10,3 C 0,0 km/h (0 Bft)
08.04.2016 20:00 24,0 C 9,2 C 41 % 62 % 1009,5 hPa 0,0 l/m 0,3 km/h (0 Bft) N 0,00 h 0,0 UV-I 0 W/m 2,3 C 9,2 C 0,9 km/h (0 Bft)
08.04.2016 21:00 24,1 C 8,5 C 42 % 66 % 1009,6 hPa 0,0 l/m 0,0 km/h (0 Bft) N 0,00 h 0,0 UV-I 0 W/m 2,6 C 8,5 C 0,0 km/h (0 Bft)
08.04.2016 22:00 24,1 C 7,8 C 41 % 71 % 1009,4 hPa 0,0 l/m 0,0 km/h (0 Bft) N 0,00 h 0,0 UV-I 0 W/m 2,8 C 7,8 C 0,0 km/h (0 Bft)
08.04.2016 23:00 23,7 C 7,2 C 42 % 73 % 1009,3 hPa 0,0 l/m 0,0 km/h (0 Bft) N 0,00 h 0,0 UV-I 0 W/m 2,7 C 7,2 C 0,0 km/h (0 Bft)
09.04.2016 00:00 23,5 C 6,1 C 44 % 78 % 1009,4 hPa 0,0 l/m 0,0 km/h (0 Bft) N 0,00 h 0,0 UV-I 0 W/m 2,5 C 6,1 C 0,0 km/h (0 Bft)
09.04.2016 01:00 23,3 C 4,9 C 44 % 82 % 1009,3 hPa 0,0 l/m 0,0 km/h (0 Bft) N 0,00 h 0,0 UV-I 0 W/m 2,0 C 4,9 C 0,0 km/h (0 Bft)
09.04.2016 02:00 23,2 C 3,9 C 44 % 85 % 1009,0 hPa 0,0 l/m 0,0 km/h (0 Bft) N 0,00 h 0,0 UV-I 0 W/m 1,5 C 3,9 C 0,0 km/h (0 Bft)
09.04.2016 03:00 23,2 C 2,8 C 45 % 88 % 1008,8 hPa 0,0 l/m 0,0 km/h (0 Bft) N 0,00 h 0,0 UV-I 0 W/m 1,0 C 2,8 C 0,0 km/h (0 Bft)
09.04.2016 04:00 23,1 C 1,8 C 45 % 88 % 1008,7 hPa 0,0 l/m 0,0 km/h (0 Bft) N 0,00 h 0,0 UV-I 0 W/m 0,1 C 1,8 C 0,0 km/h (0 Bft)
09.04.2016 05:00 23,2 C 0,9 C 45 % 89 % 1008,7 hPa 0,0 l/m 0,0 km/h (0 Bft) N 0,00 h 0,0 UV-I 0 W/m -0,6 C 0,9 C 0,0 km/h (0 Bft)
09.04.2016 06:00 23,4 C 0,3 C 46 % 90 % 1008,7 hPa 0,0 l/m 0,0 km/h (0 Bft) N 0,00 h 0,0 UV-I 8 W/m -1,2 C 0,3 C 0,0 km/h (0 Bft)
09.04.2016 07:00 23,5 C 0,1 C 46 % 91 % 1008,9 hPa 0,0 l/m 0,0 km/h (0 Bft) N 0,07 h 0,0 UV-I 64 W/m -1,1 C 0,1 C 0,0 km/h (0 Bft)
09.04.2016 08:00 23,7 C 3,2 C 45 % 91 % 1009,0 hPa 0,0 l/m 0,0 km/h (0 Bft) N 1,00 h 0,7 UV-I 237 W/m 1,8 C 3,2 C 0,0 km/h (0 Bft)
09.04.2016 09:00 23,8 C 7,1 C 45 % 76 % 1008,8 hPa 0,0 l/m 0,0 km/h (0 Bft) O-SO 0,67 h 1,3 UV-I 393 W/m 3,0 C 7,1 C 0,0 km/h (0 Bft)
09.04.2016 14:00 23,9 C 12,0 C 42 % 47 % 1007,6 hPa 0,0 l/m 5,2 km/h (1 Bft) O-NO 1,75 h 2,7 UV-I 487 W/m 1,0 C 11,4 C 10,7 km/h (2 Bft)
09.04.2016 15:00 23,8 C 12,7 C 41 % 45 % 1007,3 hPa 0,0 l/m 4,5 km/h (1 Bft) SO 1,00 h 2,8 UV-I 608 W/m 1,0 C 12,3 C 11,4 km/h (2 Bft)
09.04.2016 16:00 23,6 C 12,9 C 39 % 45 % 1007,0 hPa 0,0 l/m 4,4 km/h (1 Bft) O-SO 1,00 h 1,8 UV-I 435 W/m 1,2 C 12,4 C 10,7 km/h (2 Bft)
09.04.2016 17:00 23,6 C 11,6 C 39 % 47 % 1007,3 hPa 0,0 l/m 2,5 km/h (1 Bft) O 0,68 h 0,8 UV-I 180 W/m 0,8 C 11,4 C 7,6 km/h (2 Bft)
09.04.2016 18:00 23,7 C 10,8 C 39 % 49 % 1007,5 hPa 0,0 l/m 3,4 km/h (1 Bft) O-SO 0,05 h 0,5 UV-I 78 W/m 0,5 C 10,5 C 7,1 km/h (2 Bft)
09.04.2016 19:00 23,8 C 9,9 C 39 % 52 % 1008,0 hPa 0,0 l/m 0,1 km/h (0 Bft) O 0,00 h 0,0 UV-I 23 W/m 0,5 C 9,9 C 0,6 km/h (0 Bft)
09.04.2016 20:00 23,9 C 8,9 C 41 % 56 % 1008,9 hPa 0,0 l/m 0,1 km/h (0 Bft) O 0,00 h 0,0 UV-I 0 W/m 0,7 C 8,9 C 0,2 km/h (0 Bft)
09.04.2016 21:00 24,0 C 7,8 C 41 % 62 % 1009,5 hPa 0,0 l/m 0,0 km/h (0 Bft) N 0,00 h 0,0 UV-I 0 W/m 1,1 C 7,8 C 0,0 km/h (0 Bft)
09.04.2016 22:00 23,9 C 7,6 C 41 % 66 % 1009,9 hPa 0,0 l/m 0,0 km/h (0 Bft) N 0,00 h 0,0 UV-I 0 W/m 1,5 C 7,6 C 0,0 km/h (0 Bft)
09.04.2016 23:00 23,7 C 7,3 C 42 % 69 % 1010,0 hPa 0,0 l/m 0,0 km/h (0 Bft) N 0,00 h 0,0 UV-I 0 W/m 2,0 C 7,3 C 0,0 km/h (0 Bft)
10.04.2016 00:00 23,4 C 6,9 C 43 % 72 % 1010,2 hPa 0,0 l/m 0,0 km/h (0 Bft) N 0,00 h 0,0 UV-I 0 W/m 2,2 C 6,9 C 0,0 km/h (0 Bft)
10.04.2016 01:00 23,3 C 6,4 C 44 % 76 % 1010,4 hPa 0,0 l/m 0,0 km/h (0 Bft) N 0,00 h 0,0 UV-I 0 W/m 2,4 C 6,4 C 0,0 km/h (0 Bft)
10.04.2016 02:00 23,2 C 6,0 C 44 % 79 % 1010,5 hPa 0,0 l/m 0,0 km/h (0 Bft) N 0,00 h 0,0 UV-I 0 W/m 2,8 C 6,0 C 0,0 km/h (0 Bft)
10.04.2016 03:00 23,2 C 6,1 C 44 % 81 % 1010,6 hPa 0,0 l/m 0,0 km/h (0 Bft) N 0,00 h 0,0 UV-I 0 W/m 3,1 C 6,1 C 0,0 km/h (0 Bft)
10.04.2016 04:00 23,1 C 6,0 C 45 % 82 % 1010,9 hPa 0,0 l/m 0,0 km/h (0 Bft) N 0,00 h 0,0 UV-I 0 W/m 3,2 C 6,0 C 0,0 km/h (0 Bft)
10.04.2016 05:00 23,2 C 5,7 C 45 % 84 % 1011,2 hPa 0,0 l/m 0,0 km/h (0 Bft) N 0,00 h 0,0 UV-I 0 W/m 3,1 C 5,7 C 0,0 km/h (0 Bft)
10.04.2016 06:00 23,3 C 4,7 C 45 % 85 % 1011,6 hPa 0,0 l/m 0,0 km/h (0 Bft) N 0,00 h 0,0 UV-I 6 W/m 2,5 C 4,7 C 0,0 km/h (0 Bft)
10.04.2016 07:00 23,5 C 3,8 C 45 % 89 % 1011,8 hPa 0,0 l/m 0,0 km/h (0 Bft) N 0,00 h 0,0 UV-I 32 W/m 2,1 C 3,8 C 0,0 km/h (0 Bft)
10.04.2016 08:00 23,6 C 4,8 C 44 % 89 % 1012,1 hPa 0,0 l/m 0,0 km/h (0 Bft) N 0,78 h 0,7 UV-I 205 W/m 3,2 C 4,8 C 0,0 km/h (0 Bft)
10.04.2016 09:00 23,7 C 7,8 C 43 % 79 % 1012,3 hPa 0,0 l/m 0,0 km/h (0 Bft) N-NO 1,00 h 1,3 UV-I 369 W/m 4,4 C 7,8 C 0,4 km/h (0 Bft)
10.04.2016 10:00 23,4 C 10,0 C 41 % 66 % 1012,5 hPa 0,0 l/m 1,6 km/h (1 Bft) W-NW 0,95 h 2,1 UV-I 431 W/m 4,0 C 10,0 C 3,4 km/h (1 Bft)
10.04.2016 11:00 23,4 C 12,1 C 42 % 56 % 1012,5 hPa 0,0 l/m 2,6 km/h (1 Bft) N 1,00 h 3,2 UV-I 686 W/m 3,6 C 11,8 C 5,4 km/h (1 Bft)
10.04.2016 12:00 23,4 C 13,6 C 41 % 47 % 1012,4 hPa 0,0 l/m 3,6 km/h (1 Bft) N 0,95 h 3,9 UV-I 706 W/m 2,5 C 13,2 C 7,3 km/h (2 Bft)
10.04.2016 13:00 23,3 C 14,1 C 41 % 47 % 1012,2 hPa 0,0 l/m 1,7 km/h (1 Bft) N-NO 1,00 h 3,7 UV-I 657 W/m 3,0 C 14,1 C 5,5 km/h (1 Bft)
10.04.2016 14:00 22,8 C 13,9 C 36 % 49 % 1012,0 hPa 0,0 l/m 3,1 km/h (1 Bft) N-NO 1,00 h 2,6 UV-I 461 W/m 3,4 C 13,5 C 6,1 km/h (2 Bft)
10.04.2016 15:00 23,0 C 14,2 C 36 % 48 % 1011,8 hPa 0,0 l/m 2,9 km/h (1 Bft) N 0,88 h 2,2 UV-I 435 W/m 3,4 C 13,8 C 5,3 km/h (1 Bft)
10.04.2016 16:00 22,7 C 14,7 C 34 % 47 % 1011,6 hPa 0,0 l/m 3,5 km/h (1 Bft) N-NO 0,70 h 1,7 UV-I 405 W/m 3,6 C 14,3 C 7,2 km/h (2 Bft)
10.04.2016 17:00 23,0 C 13,5 C 36 % 53 % 1011,9 hPa 0,0 l/m 7,9 km/h (2 Bft) N-NO 0,68 h 0,9 UV-I 259 W/m 4,1 C 12,1 C 13,7 km/h (3 Bft)
10.04.2016 18:00 23,6 C 12,0 C 38 % 57 % 1012,6 hPa 0,0 l/m 9,3 km/h (2 Bft) N-NO 0,37 h 0,6 UV-I 112 W/m 3,8 C 10,1 C 16,1 km/h (3 Bft)
10.04.2016 19:00 23,7 C 9,6 C 39 % 65 % 1012,9 hPa 0,0 l/m 2,6 km/h (1 Bft) O 0,00 h 0,0 UV-I 15 W/m 3,4 C 9,4 C 6,6 km/h (2 Bft)
10.04.2016 20:00 23,6 C 7,8 C 39 % 72 % 1013,5 hPa 0,0 l/m 2,8 km/h (1 Bft) O-NO 0,00 h 0,0 UV-I 0 W/m 3,1 C 7,7 C 6,7 km/h (2 Bft)
10.04.2016 21:00 23,7 C 6,7 C 40 % 77 % 1014,1 hPa 0,0 l/m 3,1 km/h (1 Bft) O-NO 0,00 h 0,0 UV-I 0 W/m 2,9 C 6,5 C 7,2 km/h (2 Bft)
10.04.2016 22:00 23,6 C 5,7 C 40 % 80 % 1014,3 hPa 0,0 l/m 2,8 km/h (1 Bft) O-NO 0,00 h 0,0 UV-I 0 W/m 2,6 C 5,6 C 7,5 km/h (2 Bft)
10.04.2016 23:00 23,2 C 4,9 C 40 % 83 % 1014,4 hPa 0,0 l/m 2,3 km/h (1 Bft) O-NO 0,00 h 0,0 UV-I 0 W/m 2,2 C 4,8 C 5,2 km/h (1 Bft)
Min-Datum _ 10.04.16 09.04.16 10.04.16 09.04.16 05.04.16 - 04.04.16 - - - - 09.04.16 09.04.16 04.04.16
_ Min-Zeit 16:54 06:58 16:38 16:38 15:11 - 00:00 - - - - 06:58 06:58 00:00
Minimum _ 22,3 C -0,1 C 33 % 41 % 1004,5 hPa - 0,0 km/h (0 Bft) - - - - -1,5 C -0,1 C 0,0 km/h (0 Bft)
Max-Datum _ 08.04.16 05.04.16 05.04.16 05.04.16 10.04.16 06.04.16 07.04.16 - 09.04.16 07.04.16 07.04.16 05.04.16 05.04.16 06.04.16
_ Max-Zeit 18:48 14:59 12:39 08:21 23:04 03:01 12:18 - 14:14 12:49 14:29 11:33 14:59 14:16
Maximum _ 24,2 C 22,3 C 50 % 95 % 1014,5 hPa 0,6 l/m 27,4 km/h
W (4 Bft)
- 1,00 h 4,8 UV-I 1041 W/m 11,6 C 22,3 C 40,2 km/h
W-SW (6 Bft)
Durchschnitt _ 23,5 C 10,4 C 44 % 71 % 1009,4 hPa #0,8 l/m 2,2 km/h (1 Bft) W-SW #57:02 h 1,8 UV-I 274 W/m 4,9 C 10,1 C 4,4 km/h (1 Bft)